Time;durP1;ratioP1;P1;durP2;ratioP2;P2;SDS_P1;SDS_P2;PMS_P1;PMS_P2;Temp;Humidity;BMP_temperature;BMP_pressure;BME280_temperature;BME280_humidity;BME280_pressure;Samples;Min_cycle;Max_cycle;Signal;HPM_P1;HPM_P2
2021/07/13 00:00:24;;;;;;;27.73;16.90;;;;;;;18.90;65.95;98095.50;4942043;29;20483;-74
2021/07/13 00:02:50;;;;;;;27.65;18.00;;;;;;;18.85;66.09;98087.44;4942229;29;20027;-75
2021/07/13 00:05:18;;;;;;;29.77;16.95;;;;;;;18.85;66.10;98093.00;4940947;29;20633;-75
2021/07/13 00:07:46;;;;;;;25.23;16.25;;;;;;;18.84;66.27;98088.63;4942227;29;20053;-74
2021/07/13 00:10:14;;;;;;;28.88;16.23;;;;;;;18.82;66.23;98082.63;4939965;29;20023;-74
2021/07/13 00:12:40;;;;;;;21.67;14.77;;;;;;;18.80;66.15;98087.72;4939138;29;20031;-77
2021/07/13 00:15:12;;;;;;;23.13;15.15;;;;;;;18.79;66.89;98083.34;4940924;29;20020;-74
2021/07/13 00:17:38;;;;;;;22.13;15.07;;;;;;;18.75;66.53;98075.72;4938856;29;20493;-74
2021/07/13 00:20:05;;;;;;;24.25;15.38;;;;;;;18.75;66.55;98077.66;4941572;29;20035;-74
2021/07/13 00:22:31;;;;;;;25.23;15.75;;;;;;;18.75;66.62;98074.91;4924349;29;20043;-73
2021/07/13 00:24:57;;;;;;;25.30;14.60;;;;;;;18.75;66.75;98084.06;4939060;29;20059;-74
2021/07/13 00:27:22;;;;;;;23.55;15.48;;;;;;;18.75;66.83;98070.16;4944828;28;20027;-74
2021/07/13 00:29:47;;;;;;;21.55;14.20;;;;;;;18.78;66.87;98071.41;4937042;29;20027;-74
2021/07/13 00:32:13;;;;;;;24.55;15.02;;;;;;;18.77;66.77;98080.91;4940728;29;20375;-74
2021/07/13 00:34:38;;;;;;;21.92;14.75;;;;;;;18.82;67.00;98069.50;4939470;29;20055;-74
2021/07/13 00:37:04;;;;;;;20.83;14.45;;;;;;;18.83;66.89;98067.56;4941562;29;20454;-74
2021/07/13 00:39:29;;;;;;;23.83;14.55;;;;;;;18.84;66.82;98066.38;4940801;29;20035;-73
2021/07/13 00:41:54;;;;;;;24.60;15.43;;;;;;;18.83;66.76;98062.00;4941777;28;20495;-74
2021/07/13 00:44:20;;;;;;;24.13;14.40;;;;;;;18.80;66.94;98069.06;4924075;29;20099;-74
2021/07/13 00:46:48;;;;;;;23.95;14.35;;;;;;;18.82;66.94;98068.72;4932490;29;20046;-74
2021/07/13 00:49:16;;;;;;;23.27;14.93;;;;;;;18.79;66.84;98063.88;4932994;29;20032;-74
2021/07/13 00:51:42;;;;;;;21.35;14.40;;;;;;;18.78;67.16;98071.41;4936061;29;20051;-73
2021/07/13 00:54:09;;;;;;;22.63;14.95;;;;;;;18.78;66.75;98071.41;4935140;29;20388;-73
2021/07/13 00:56:40;;;;;;;24.25;15.75;;;;;;;18.80;67.02;98073.81;4936328;29;20034;-74
2021/07/13 00:59:05;;;;;;;23.42;15.30;;;;;;;18.81;67.17;98076.22;4935803;29;20050;-74
2021/07/13 01:01:32;;;;;;;23.52;14.27;;;;;;;18.81;66.89;98067.09;4936053;29;20071;-73
2021/07/13 01:03:58;;;;;;;21.80;13.88;;;;;;;18.82;67.08;98066.72;4936042;28;20038;-74
2021/07/13 01:06:28;;;;;;;24.17;14.32;;;;;;;18.79;67.07;98069.44;4934715;29;20028;-74
2021/07/13 01:09:00;;;;;;;25.25;13.90;;;;;;;18.78;66.91;98065.84;4935383;29;20069;-74
2021/07/13 01:11:45;;;;;;;24.77;14.77;;;;;;;18.76;67.10;98062.63;4923354;29;20460;-74
2021/07/13 01:14:24;;;;;;;25.52;16.38;;;;;;;18.73;67.09;98060.59;4935709;29;20027;-74
2021/07/13 01:17:09;;;;;;;26.73;17.13;;;;;;;18.72;67.26;98054.22;4935777;29;20023;-74
2021/07/13 01:20:01;;;;;;;27.35;17.45;;;;;;;18.72;67.21;98050.66;4934445;29;20059;-74
2021/07/13 01:22:53;;;;;;;27.83;15.75;;;;;;;18.65;67.21;98051.25;4935052;29;20024;-75
2021/07/13 01:25:36;;;;;;;26.85;15.40;;;;;;;18.66;67.36;98049.31;4919786;29;20023;-74
2021/07/13 01:28:20;;;;;;;25.20;14.57;;;;;;;18.66;67.67;98052.09;4934998;29;20515;-74
2021/07/13 01:30:50;;;;;;;28.02;15.38;;;;;;;18.67;67.54;98048.13;4934474;29;20028;-74
2021/07/13 01:33:19;;;;;;;27.15;15.65;;;;;;;18.71;67.86;98049.03;4934584;29;20028;-74
2021/07/13 01:35:53;;;;;;;28.25;16.35;;;;;;;18.74;68.03;98051.09;4934861;29;20035;-74
2021/07/13 01:38:23;;;;;;;28.52;15.73;;;;;;;18.74;67.88;98048.31;4934846;29;20047;-74
2021/07/13 01:40:54;;;;;;;28.98;16.08;;;;;;;18.77;67.88;98053.13;4934289;29;20095;-74
2021/07/13 01:43:20;;;;;;;29.42;16.48;;;;;;;18.78;67.98;98051.16;4934370;29;20366;-74
2021/07/13 01:45:46;;;;;;;30.48;17.02;;;;;;;18.81;68.22;98047.66;4937236;29;20106;-75
2021/07/13 01:48:12;;;;;;;29.88;16.80;;;;;;;18.82;68.24;98043.72;4943788;29;20487;-74
2021/07/13 01:50:41;;;;;;;29.40;16.40;;;;;;;18.81;68.12;98042.09;4943504;29;20023;-74
2021/07/13 01:53:07;;;;;;;29.08;16.55;;;;;;;18.83;68.30;98048.91;4941112;29;20228;-75
2021/07/13 01:55:35;;;;;;;30.00;16.85;;;;;;;18.85;68.32;98054.09;4943103;29;20063;-74
2021/07/13 01:58:02;;;;;;;28.98;16.58;;;;;;;18.88;68.30;98058.94;4943946;29;20058;-74
2021/07/13 02:00:29;;;;;;;28.77;16.25;;;;;;;18.88;68.47;98059.72;4925349;29;20023;-74
2021/07/13 02:02:55;;;;;;;26.60;16.52;;;;;;;18.90;68.54;98059.38;4941357;29;20038;-74
2021/07/13 02:05:25;;;;;;;29.23;16.02;;;;;;;18.90;68.36;98054.63;4943130;29;20058;-73
2021/07/13 02:07:53;;;;;;;31.48;17.08;;;;;;;18.94;68.38;98051.94;4941438;29;20035;-74
2021/07/13 02:10:20;;;;;;;29.25;16.00;;;;;;;18.94;68.51;98051.94;4943822;29;20115;-74
2021/07/13 02:12:46;;;;;;;28.52;17.55;;;;;;;18.94;68.45;98045.56;4941177;29;20023;-74
2021/07/13 02:15:12;;;;;;;29.27;17.77;;;;;;;18.94;68.55;98040.84;4939794;29;20111;-74
2021/07/13 02:17:38;;;;;;;28.30;16.58;;;;;;;18.95;68.68;98036.84;4943735;28;20023;-74
2021/07/13 02:20:10;;;;;;;27.02;17.05;;;;;;;18.96;68.62;98044.06;4919069;29;20058;-76
2021/07/13 02:22:39;;;;;;;30.05;17.17;;;;;;;18.98;68.40;98046.50;4941686;29;20437;-75
2021/07/13 02:25:09;;;;;;;27.23;16.48;;;;;;;18.98;68.64;98041.72;4943559;29;20032;-76
2021/07/13 02:27:41;;;;;;;31.08;17.65;;;;;;;18.98;68.76;98049.25;4943276;29;20032;-76
2021/07/13 02:30:08;;;;;;;28.63;15.73;;;;;;;18.97;68.79;98045.66;4944916;29;20034;-75
2021/07/13 02:32:53;;;;;;;27.17;15.77;;;;;;;18.95;68.60;98038.84;4939695;29;20445;-75
2021/07/13 02:35:27;;;;;;;26.90;16.48;;;;;;;18.95;68.54;98042.41;4938321;29;20145;-75
2021/07/13 02:37:53;;;;;;;26.25;14.82;;;;;;;18.97;68.97;98044.88;4944329;29;20020;-75
2021/07/13 02:40:18;;;;;;;31.65;16.77;;;;;;;18.98;68.66;98046.50;4944796;29;20110;-75
2021/07/13 02:42:46;;;;;;;26.65;16.35;;;;;;;18.99;68.86;98042.53;4926760;29;20119;-75
2021/07/13 02:45:14;;;;;;;27.08;16.45;;;;;;;19.00;68.98;98044.16;4941754;29;20062;-75
2021/07/13 02:47:43;;;;;;;20.42;13.77;;;;;;;19.00;68.71;98052.50;4933626;29;20167;-75
2021/07/13 02:50:09;;;;;;;24.98;14.93;;;;;;;18.94;68.75;98056.69;4934046;29;20016;-76
2021/07/13 02:52:36;;;;;;;20.55;13.07;;;;;;;18.86;68.68;98062.06;4933684;29;20039;-76
2021/07/13 02:55:06;;;;;;;23.33;13.57;;;;;;;18.87;68.84;98065.66;4920587;29;20034;-75
2021/07/13 02:57:33;;;;;;;21.75;14.55;;;;;;;18.82;68.85;98063.97;4933221;29;20027;-76
2021/07/13 02:59:59;;;;;;;22.95;15.07;;;;;;;18.79;68.99;98061.91;4933563;29;20102;-76
2021/07/13 03:02:25;;;;;;;22.60;14.65;;;;;;;18.73;69.17;98063.38;4932782;29;20497;-76
2021/07/13 03:04:52;;;;;;;21.58;14.30;;;;;;;18.69;69.22;98066.03;4933431;29;20051;-75
2021/07/13 03:07:21;;;;;;;22.02;14.77;;;;;;;18.64;69.14;98073.84;4919425;29;20098;-74
2021/07/13 03:09:48;;;;;;;23.20;14.43;;;;;;;18.64;69.33;98068.28;4935346;29;20054;-75
2021/07/13 03:12:15;;;;;;;25.15;14.85;;;;;;;18.60;69.33;98069.00;4931493;29;20031;-75
2021/07/13 03:14:44;;;;;;;23.08;14.75;;;;;;;18.58;69.56;98059.41;4932973;29;20503;-75
2021/07/13 03:17:11;;;;;;;23.35;13.60;;;;;;;18.55;69.46;98058.19;4932699;29;20685;-75
2021/07/13 03:19:37;;;;;;;19.45;13.05;;;;;;;18.52;69.68;98053.34;4932028;29;20038;-75
2021/07/13 03:22:05;;;;;;;20.33;12.68;;;;;;;18.50;69.72;98072.31;4932969;29;20032;-74
2021/07/13 03:24:31;;;;;;;19.75;13.43;;;;;;;18.49;69.88;98056.03;4931882;29;20051;-74
2021/07/13 03:26:59;;;;;;;22.67;14.05;;;;;;;18.51;69.88;98057.28;4933011;29;20032;-75
2021/07/13 03:29:25;;;;;;;23.52;14.93;;;;;;;18.54;70.05;98059.34;4933088;29;20094;-75
2021/07/13 03:31:51;;;;;;;23.15;14.68;;;;;;;18.57;70.04;98058.63;4932731;29;20773;-74
2021/07/13 03:34:17;;;;;;;26.25;15.40;;;;;;;18.59;70.22;98055.47;4932682;29;20091;-75
2021/07/13 03:36:43;;;;;;;22.60;14.50;;;;;;;18.58;70.13;98054.69;4933874;29;20028;-75
2021/07/13 03:39:09;;;;;;;23.42;15.00;;;;;;;18.59;70.32;98049.91;4933191;29;20054;-75
2021/07/13 03:41:35;;;;;;;25.20;15.10;;;;;;;18.59;70.30;98047.97;4930614;29;20053;-74
2021/07/13 03:44:03;;;;;;;21.02;13.50;;;;;;;18.57;70.31;98050.28;4930886;29;21567;-75
2021/07/13 03:46:34;;;;;;;22.13;13.25;;;;;;;18.57;70.47;98046.69;4932508;29;20173;-74
2021/07/13 03:49:02;;;;;;;23.40;14.93;;;;;;;18.58;70.55;98051.09;4932578;29;20754;-74
2021/07/13 03:52:00;;;;;;;20.50;13.98;;;;;;;18.57;70.44;98055.84;4932025;29;20473;-74
2021/07/13 03:54:25;;;;;;;22.23;14.93;;;;;;;18.54;70.54;98053.78;4901041;29;20507;-73
2021/07/13 03:56:51;;;;;;;23.52;14.90;;;;;;;18.53;70.67;98045.84;4935534;29;20019;-74
2021/07/13 03:59:17;;;;;;;24.63;14.93;;;;;;;18.51;70.51;98039.81;4932870;29;20024;-73
2021/07/13 04:01:43;;;;;;;21.52;13.90;;;;;;;18.51;70.63;98042.59;4931983;29;20399;-74
2021/07/13 04:04:09;;;;;;;22.80;14.98;;;;;;;18.48;70.85;98035.78;4932611;29;20035;-74
2021/07/13 04:06:36;;;;;;;21.55;14.70;;;;;;;18.48;70.74;98033.00;4932856;29;20023;-73
2021/07/13 04:09:04;;;;;;;22.55;14.40;;;;;;;18.49;70.92;98042.16;4932600;29;20031;-73
2021/07/13 04:11:29;;;;;;;25.65;15.95;;;;;;;18.50;71.09;98035.44;4920824;29;20068;-74
2021/07/13 04:13:55;;;;;;;25.80;15.23;;;;;;;18.49;71.02;98029.06;4932356;29;20111;-74
2021/07/13 04:16:20;;;;;;;32.00;17.30;;;;;;;18.50;71.05;98032.66;4932706;29;20511;-74
2021/07/13 04:18:46;;;;;;;30.65;17.52;;;;;;;18.53;71.09;98031.94;4923736;29;20024;-75
2021/07/13 04:21:11;;;;;;;34.38;18.38;;;;;;;18.56;71.32;98029.25;4931110;29;20044;-74
2021/07/13 04:23:36;;;;;;;35.85;19.00;;;;;;;18.59;71.39;98036.03;4934676;29;20528;-75
2021/07/13 04:26:04;;;;;;;37.25;19.38;;;;;;;18.63;71.67;98036.94;4937129;29;20026;-75
2021/07/13 04:28:32;;;;;;;40.97;19.33;;;;;;;18.67;71.48;98028.69;4927821;29;20508;-74
2021/07/13 04:30:59;;;;;;;34.13;18.02;;;;;;;18.69;71.44;98026.38;4938005;29;20106;-75
2021/07/13 04:33:24;;;;;;;41.22;18.80;;;;;;;18.72;71.10;98033.97;4935827;29;20118;-75
2021/07/13 04:35:49;;;;;;;44.35;20.45;;;;;;;18.72;71.50;98040.31;4936458;29;20512;-75
2021/07/13 04:38:15;;;;;;;47.50;21.15;;;;;;;18.73;71.81;98033.59;4936112;29;20027;-75
2021/07/13 04:40:41;;;;;;;50.03;21.52;;;;;;;18.79;71.82;98031.34;4932764;29;20540;-75
2021/07/13 04:43:06;;;;;;;48.90;20.15;;;;;;;18.85;71.49;98037.44;4934265;29;20024;-75
2021/07/13 04:45:31;;;;;;;49.58;21.63;;;;;;;18.88;71.57;98033.94;4939164;29;20047;-74
2021/07/13 04:47:57;;;;;;;51.28;23.45;;;;;;;18.91;71.73;98041.56;4948732;29;20162;-75
2021/07/13 04:50:22;;;;;;;54.22;23.88;;;;;;;18.94;71.73;98040.84;4927983;29;20159;-74
2021/07/13 04:52:47;;;;;;;51.92;22.55;;;;;;;18.91;71.83;98036.00;4943841;29;20024;-75
2021/07/13 04:55:16;;;;;;;57.15;23.27;;;;;;;18.94;71.50;98032.50;4946895;29;20059;-75
2021/07/13 04:57:42;;;;;;;55.22;24.77;;;;;;;19.00;71.82;98042.16;4945833;29;20578;-75
2021/07/13 05:00:08;;;;;;;48.65;21.98;;;;;;;19.04;71.70;98045.03;4946285;29;20484;-75
2021/07/13 05:02:34;;;;;;;48.83;21.25;;;;;;;19.08;71.90;98042.31;4943484;29;20094;-75
2021/07/13 05:04:59;;;;;;;52.38;22.70;;;;;;;19.15;71.89;98050.81;4944918;28;20511;-75
2021/07/13 05:07:25;;;;;;;48.63;22.98;;;;;;;19.21;72.02;98043.00;4944948;29;20114;-76
2021/07/13 05:09:50;;;;;;;54.78;24.67;;;;;;;19.23;71.96;98043.44;4946203;29;20141;-76
2021/07/13 05:12:16;;;;;;;54.38;23.48;;;;;;;19.25;71.89;98050.25;4928074;29;20123;-75
2021/07/13 05:14:41;;;;;;;57.70;25.92;;;;;;;19.27;72.02;98047.91;4943399;28;20071;-76
2021/07/13 05:17:07;;;;;;;50.83;23.75;;;;;;;19.28;72.08;98043.16;4930189;29;20050;-76
2021/07/13 05:19:33;;;;;;;47.63;22.50;;;;;;;19.28;71.77;98041.19;4944220;29;20476;-76
2021/07/13 05:22:02;;;;;;;50.97;23.38;;;;;;;19.32;71.83;98046.81;4923731;29;20019;-77
2021/07/13 05:24:28;;;;;;;51.83;21.92;;;;;;;19.36;71.96;98052.47;4939735;29;20030;-75
2021/07/13 05:26:54;;;;;;;59.55;24.77;;;;;;;19.42;72.36;98048.19;4941834;29;20019;-75
2021/07/13 05:29:20;;;;;;;56.78;24.35;;;;;;;19.45;72.07;98053.84;4942566;29;20137;-73
2021/07/13 05:31:45;;;;;;;60.33;26.10;;;;;;;19.44;71.89;98052.25;4941059;29;20185;-75
2021/07/13 05:34:11;;;;;;;54.17;23.55;;;;;;;19.47;71.81;98056.25;4941005;29;20059;-75
2021/07/13 05:36:36;;;;;;;50.00;23.65;;;;;;;19.46;72.13;98049.91;4940659;29;20062;-75
2021/07/13 05:39:06;;;;;;;62.33;25.70;;;;;;;19.49;71.97;98035.28;4935761;29;20500;-74
2021/07/13 05:41:31;;;;;;;60.28;26.00;;;;;;;19.50;71.97;98036.06;4940604;29;20039;-75
2021/07/13 05:43:58;;;;;;;56.83;25.60;;;;;;;19.53;72.05;98031.75;4935474;29;20039;-74
2021/07/13 05:46:23;;;;;;;63.78;26.83;;;;;;;19.53;71.98;98029.78;4940337;29;20060;-74
2021/07/13 05:48:49;;;;;;;72.30;28.67;;;;;;;19.60;72.18;98031.88;4935658;29;20032;-74
2021/07/13 05:51:14;;;;;;;67.78;28.80;;;;;;;19.62;71.91;98033.13;4937623;29;20035;-74
2021/07/13 05:53:40;;;;;;;65.90;29.13;;;;;;;19.68;72.12;98033.63;4935696;29;20055;-73
2021/07/13 05:56:07;;;;;;;61.30;26.92;;;;;;;19.75;72.12;98033.78;4938856;29;20027;-74
2021/07/13 05:58:33;;;;;;;63.00;30.13;;;;;;;19.79;71.95;98043.00;4936435;29;20020;-74
2021/07/13 06:00:58;;;;;;;63.95;30.73;;;;;;;19.82;72.18;98049.00;4938475;29;20419;-74
2021/07/13 06:03:24;;;;;;;49.03;26.13;;;;;;;19.83;71.90;98040.28;4935912;29;20075;-75
2021/07/13 06:05:49;;;;;;;61.97;30.27;;;;;;;19.87;72.00;98034.78;4936448;29;20028;-75
2021/07/13 06:08:15;;;;;;;49.28;27.10;;;;;;;19.91;72.07;98039.25;4936186;29;20039;-74
2021/07/13 06:10:40;;;;;;;53.97;29.33;;;;;;;19.96;72.30;98034.56;4942801;28;20026;-74
2021/07/13 06:13:05;;;;;;;45.08;26.13;;;;;;;19.99;72.05;98036.63;4953371;29;20510;-74
2021/07/13 06:15:31;;;;;;;37.47;22.27;;;;;;;20.03;71.97;98041.06;4938662;29;20042;-75
2021/07/13 06:17:56;;;;;;;55.20;32.88;;;;;;;20.07;71.91;98030.81;4934617;29;20491;-74
2021/07/13 06:20:22;;;;;;;55.28;29.92;;;;;;;20.13;71.99;98034.09;4934203;29;20020;-75
2021/07/13 06:22:47;;;;;;;180.20;74.35;;;;;;;20.16;72.01;98038.94;4934953;29;20054;-75
2021/07/13 06:25:13;;;;;;;471.35;188.93;;;;;;;20.22;71.95;98031.06;4936353;29;20024;-75
2021/07/13 06:27:39;;;;;;;372.85;172.50;;;;;;;20.28;72.16;98023.19;4934438;29;20063;-75
2021/07/13 06:30:06;;;;;;;208.60;113.28;;;;;;;20.35;72.06;98029.72;4946710;29;20122;-75
2021/07/13 06:32:31;;;;;;;52.40;30.15;;;;;;;20.44;71.82;98040.59;4935519;29;20027;-75
2021/07/13 06:34:58;;;;;;;41.88;24.17;;;;;;;20.51;71.74;98039.88;4935162;29;20039;-75
2021/07/13 06:37:23;;;;;;;38.60;22.65;;;;;;;20.56;71.85;98033.22;4935640;29;20027;-75
2021/07/13 06:39:49;;;;;;;36.95;22.40;;;;;;;20.63;71.67;98030.50;4935766;29;20078;-75
2021/07/13 06:42:14;;;;;;;38.17;24.63;;;;;;;20.68;72.11;98031.03;4935499;29;20039;-75
2021/07/13 06:44:40;;;;;;;37.50;22.30;;;;;;;20.75;71.67;98033.09;4935023;29;20031;-75
2021/07/13 06:47:05;;;;;;;40.10;22.27;;;;;;;20.86;71.79;98036.06;4933461;29;20047;-74
2021/07/13 06:49:31;;;;;;;39.83;22.45;;;;;;;20.94;71.82;98028.63;4935245;29;20027;-75
2021/07/13 06:51:56;;;;;;;42.90;26.50;;;;;;;21.03;71.66;98029.13;4935110;29;20027;-76
2021/07/13 06:54:21;;;;;;;38.47;24.00;;;;;;;21.11;71.65;98027.28;4934537;29;20055;-73
2021/07/13 06:56:47;;;;;;;46.60;25.50;;;;;;;21.20;71.33;98024.19;4935218;29;20027;-73
2021/07/13 06:59:12;;;;;;;43.38;26.73;;;;;;;21.27;71.05;98019.50;4934976;29;20031;-73
2021/07/13 07:01:38;;;;;;;35.95;22.25;;;;;;;21.36;71.11;98024.81;4934756;28;20031;-75
2021/07/13 07:04:03;;;;;;;37.05;22.13;;;;;;;21.44;71.22;98022.91;4934033;29;20035;-75
2021/07/13 07:06:29;;;;;;;38.40;21.98;;;;;;;21.53;70.87;98019.81;4943346;29;20035;-76
2021/07/13 07:08:55;;;;;;;39.13;22.08;;;;;;;21.61;70.91;98021.50;4934487;29;20069;-74
2021/07/13 07:11:21;;;;;;;43.58;21.40;;;;;;;21.69;70.67;98020.44;4934451;29;20499;-74
2021/07/13 07:13:46;;;;;;;35.42;20.73;;;;;;;21.79;70.91;98007.00;4934093;29;20024;-73
2021/07/13 07:16:12;;;;;;;33.45;20.52;;;;;;;21.85;70.75;98006.25;4935209;29;20503;-75
2021/07/13 07:18:37;;;;;;;33.35;20.33;;;;;;;21.94;70.45;98011.50;4934423;29;20452;-76
2021/07/13 07:21:02;;;;;;;35.65;21.90;;;;;;;22.03;70.38;98007.59;4933382;29;20519;-77
2021/07/13 07:23:28;;;;;;;31.92;20.70;;;;;;;22.11;70.19;98010.06;4924146;29;20115;-74
2021/07/13 07:25:53;;;;;;;34.08;22.67;;;;;;;22.21;70.26;98008.56;4931818;29;20040;-73
2021/07/13 07:28:20;;;;;;;29.35;19.35;;;;;;;22.29;70.01;97998.28;4932632;29;20035;-75
2021/07/13 07:30:45;;;;;;;34.20;21.58;;;;;;;22.36;69.92;97981.56;4906398;29;20070;-73
2021/07/13 07:33:11;;;;;;;32.38;21.55;;;;;;;22.44;69.66;97988.81;4930166;29;20125;-73
2021/07/13 07:35:36;;;;;;;32.33;20.83;;;;;;;22.54;69.77;97986.50;4930367;29;20062;-75
2021/07/13 07:38:02;;;;;;;33.38;20.42;;;;;;;22.65;69.59;97989.38;4938338;29;20404;-73
2021/07/13 07:40:28;;;;;;;28.52;18.80;;;;;;;22.74;69.56;97981.44;4930546;29;20034;-73
2021/07/13 07:42:56;;;;;;;31.10;20.85;;;;;;;22.84;69.11;97982.69;4931694;29;20038;-74
2021/07/13 07:45:23;;;;;;;31.13;19.80;;;;;;;22.94;69.27;97981.16;4930869;29;20816;-75
2021/07/13 07:47:49;;;;;;;27.02;18.90;;;;;;;23.01;68.90;97982.00;4936814;29;20038;-74
2021/07/13 07:50:16;;;;;;;30.92;18.02;;;;;;;23.11;68.67;97983.25;4946794;29;20039;-76
2021/07/13 07:52:42;;;;;;;29.80;18.67;;;;;;;23.19;68.39;97976.50;4939929;29;20506;-79
2021/07/13 07:55:10;;;;;;;23.40;16.98;;;;;;;23.30;68.29;97981.38;4933969;29;20036;-75
2021/07/13 07:57:36;;;;;;;22.85;17.13;;;;;;;23.39;68.26;97981.00;4930637;29;20035;-75
2021/07/13 08:00:05;;;;;;;24.48;17.48;;;;;;;23.49;68.13;97978.22;4931420;29;20103;-77
2021/07/13 08:02:30;;;;;;;23.15;16.73;;;;;;;23.61;67.90;97976.25;4933942;29;20094;-78
2021/07/13 08:04:56;;;;;;;22.83;16.25;;;;;;;23.72;68.03;97985.50;4928834;29;20106;-78
2021/07/13 08:07:21;;;;;;;22.67;16.40;;;;;;;23.84;67.99;97980.72;4931295;29;20505;-79
2021/07/13 08:09:46;;;;;;;23.20;15.98;;;;;;;23.92;67.29;97980.31;4930436;29;20028;-76
2021/07/13 08:12:12;;;;;;;20.40;15.38;;;;;;;24.02;67.39;97987.16;4938142;29;20019;-75
2021/07/13 08:14:37;;;;;;;22.75;15.38;;;;;;;24.11;67.32;97989.56;4935413;29;20039;-74
2021/07/13 08:17:03;;;;;;;19.45;14.93;;;;;;;24.22;67.24;97986.78;4931235;29;20056;-77
2021/07/13 08:19:28;;;;;;;18.13;13.75;;;;;;;24.32;66.96;97988.78;4930193;29;20034;-77
2021/07/13 08:21:54;;;;;;;19.52;15.13;;;;;;;24.37;66.44;97993.19;4932555;29;20024;-78
2021/07/13 08:24:20;;;;;;;19.38;13.45;;;;;;;24.44;66.15;97993.19;4929820;29;20150;-73
2021/07/13 08:26:46;;;;;;;19.02;14.30;;;;;;;24.52;66.04;97991.19;4931445;29;20488;-75
2021/07/13 08:29:15;;;;;;;18.42;14.98;;;;;;;24.55;65.64;97989.56;4931001;29;20034;-74
2021/07/13 08:31:40;;;;;;;21.08;14.73;;;;;;;24.63;65.35;97991.97;4908717;29;20030;-76
2021/07/13 08:34:05;;;;;;;18.77;14.30;;;;;;;24.70;65.61;97982.75;4917689;29;20020;-76
2021/07/13 08:36:31;;;;;;;19.65;14.93;;;;;;;24.78;65.17;97981.56;4931961;29;20612;-74
2021/07/13 08:38:56;;;;;;;17.17;13.57;;;;;;;24.88;65.48;97985.53;4930234;29;20102;-76
2021/07/13 08:41:22;;;;;;;16.70;13.52;;;;;;;24.96;65.03;97997.53;4929609;29;20039;-76
2021/07/13 08:43:50;;;;;;;17.65;14.45;;;;;;;25.03;64.74;97996.72;4929662;29;20385;-76
2021/07/13 08:46:15;;;;;;;16.20;13.32;;;;;;;25.07;64.37;97994.69;4929826;29;20048;-77
2021/07/13 08:48:41;;;;;;;19.33;14.63;;;;;;;25.15;64.52;97998.28;4929701;29;20713;-77
2021/07/13 08:51:07;;;;;;;20.13;13.98;;;;;;;25.22;64.19;97985.03;4930191;29;20492;-76
2021/07/13 08:53:33;;;;;;;18.88;13.13;;;;;;;25.33;64.20;97996.19;4930788;29;20165;-77
2021/07/13 08:55:59;;;;;;;17.90;13.68;;;;;;;25.45;63.88;97995.00;4929382;29;20078;-76
2021/07/13 08:58:26;;;;;;;20.95;14.15;;;;;;;25.58;63.72;97998.13;4918057;29;20027;-77
2021/07/13 09:00:52;;;;;;;17.75;13.25;;;;;;;25.67;63.48;97984.44;4930459;29;20078;-76
2021/07/13 09:03:19;;;;;;;14.85;12.35;;;;;;;25.79;63.14;97994.41;4929620;29;20038;-77
2021/07/13 09:05:53;;;;;;;16.17;13.55;;;;;;;25.91;62.95;97989.50;4930203;29;20039;-78
2021/07/13 09:08:32;;;;;;;18.17;12.77;;;;;;;26.01;63.21;97981.03;4916392;29;20083;-80
2021/07/13 09:11:00;;;;;;;16.05;12.52;;;;;;;26.12;62.45;97989.38;4933804;29;20028;-77
2021/07/13 09:13:30;;;;;;;19.23;13.40;;;;;;;26.20;62.52;97987.31;4934589;29;20067;-77
2021/07/13 09:15:56;;;;;;;14.90;12.45;;;;;;;26.28;62.23;97988.06;4935080;29;20649;-76
2021/07/13 09:18:34;;;;;;;14.48;12.45;;;;;;;26.35;62.00;97985.19;4934904;29;20087;-76
2021/07/13 09:21:06;;;;;;;15.13;12.75;;;;;;;26.44;61.52;97981.91;4934751;29;20115;-76
2021/07/13 09:23:33;;;;;;;15.02;12.27;;;;;;;26.50;61.57;97977.41;4933635;29;20504;-77
2021/07/13 09:25:58;;;;;;;17.58;12.45;;;;;;;26.61;61.52;97982.97;4933433;29;20597;-76
2021/07/13 09:28:25;;;;;;;15.43;12.35;;;;;;;26.67;60.56;97978.47;4931829;29;20035;-76
2021/07/13 09:30:58;;;;;;;15.68;12.60;;;;;;;26.73;60.56;97979.59;4932143;29;20028;-76
2021/07/13 09:33:28;;;;;;;16.40;12.95;;;;;;;26.79;60.53;97968.72;4934499;29;20031;-77
2021/07/13 09:35:58;;;;;;;14.57;11.90;;;;;;;26.85;60.25;97975.53;4933668;29;20480;-76
2021/07/13 09:38:25;;;;;;;13.75;11.57;;;;;;;26.91;60.07;97978.66;4919795;29;20087;-78
2021/07/13 09:41:02;;;;;;;14.20;12.63;;;;;;;26.96;60.01;97981.03;4931923;29;20027;-78
2021/07/13 09:43:37;;;;;;;14.50;11.57;;;;;;;27.03;59.69;97978.13;4931881;29;20039;-77
2021/07/13 09:46:20;;;;;;;14.73;10.93;;;;;;;27.10;59.71;97973.66;4934741;29;20044;-77
2021/07/13 09:49:14;;;;;;;14.50;11.25;;;;;;;27.15;59.42;97967.53;4934391;29;20031;-77
2021/07/13 09:52:02;;;;;;;14.32;11.30;;;;;;;27.24;59.39;97961.41;4933261;29;20087;-75
2021/07/13 09:54:34;;;;;;;14.48;10.77;;;;;;;27.32;59.37;97960.06;4936125;29;20102;-77
2021/07/13 09:57:05;;;;;;;13.50;10.45;;;;;;;27.37;59.03;97962.44;4933509;29;20225;-77
2021/07/13 09:59:31;;;;;;;13.23;10.95;;;;;;;27.44;58.64;97964.38;4932858;29;20079;-75
2021/07/13 10:01:57;;;;;;;12.57;10.00;;;;;;;27.49;58.10;97956.25;4933583;29;20044;-77
2021/07/13 10:04:22;;;;;;;13.18;9.90;;;;;;;27.55;57.79;97958.59;4940744;29;20493;-77
2021/07/13 10:06:50;;;;;;;13.93;11.13;;;;;;;27.60;57.73;97966.59;4933834;29;20019;-79
2021/07/13 10:09:17;;;;;;;15.30;11.52;;;;;;;27.67;57.62;97952.41;4933506;29;20495;-74
2021/07/13 10:11:43;;;;;;;12.00;10.60;;;;;;;27.70;57.07;97951.56;4932934;29;20473;-75
2021/07/13 10:14:09;;;;;;;24.83;11.85;;;;;;;27.76;57.07;97946.25;4933196;29;20617;-76
2021/07/13 10:16:35;;;;;;;16.45;11.60;;;;;;;27.81;56.64;97954.22;4933930;29;20039;-77
2021/07/13 10:19:01;;;;;;;15.07;11.70;;;;;;;27.87;56.96;97946.88;4937920;29;20043;-76
2021/07/13 10:21:27;;;;;;;13.65;11.23;;;;;;;27.91;56.07;97947.63;4932478;29;20077;-78
2021/07/13 10:23:53;;;;;;;15.90;11.90;;;;;;;27.93;56.17;97942.34;4932731;29;20477;-76
2021/07/13 10:26:52;;;;;;;15.35;11.88;;;;;;;27.99;56.46;97941.84;4934958;29;20404;-76
2021/07/13 10:29:32;;;;;;;13.00;11.48;;;;;;;28.04;56.45;97927.28;4882267;29;20043;-79
2021/07/13 10:32:27;;;;;;;19.73;11.70;;;;;;;28.06;55.32;97924.84;4932619;29;20031;-80
2021/07/13 10:34:56;;;;;;;18.83;12.90;;;;;;;28.10;55.77;97928.38;4932799;28;20115;-77
2021/07/13 10:37:30;;;;;;;13.55;11.38;;;;;;;28.18;55.42;97920.63;4932052;29;20499;-77
2021/07/13 10:40:15;;;;;;;15.23;11.38;;;;;;;28.24;55.83;97927.38;4917008;29;20031;-76
2021/07/13 10:42:40;;;;;;;14.45;11.82;;;;;;;28.30;55.79;97927.69;4933390;29;20031;-73
2021/07/13 10:45:13;;;;;;;15.52;12.50;;;;;;;28.34;55.75;97929.22;4936942;29;20078;-74
2021/07/13 10:47:57;;;;;;;16.00;12.05;;;;;;;28.45;55.73;97931.84;4932957;29;20035;-77
2021/07/13 10:50:22;;;;;;;15.10;12.43;;;;;;;28.55;56.11;97927.22;4933553;29;20819;-77
2021/07/13 10:53:04;;;;;;;14.20;11.65;;;;;;;28.64;55.42;97926.69;4932650;29;20040;-79
2021/07/13 10:55:30;;;;;;;13.40;11.98;;;;;;;28.73;54.70;97926.91;4930437;29;20140;-76
2021/07/13 10:58:10;;;;;;;13.75;12.35;;;;;;;28.80;55.19;97921.13;4928368;29;20526;-75
2021/07/13 11:00:48;;;;;;;13.55;11.60;;;;;;;28.86;54.64;97915.00;4929495;29;20107;-76
2021/07/13 11:03:29;;;;;;;13.43;11.57;;;;;;;28.90;54.25;97910.06;4929464;29;20031;-73
2021/07/13 11:05:57;;;;;;;13.23;11.82;;;;;;;28.92;54.21;97911.25;4918168;29;20035;-76
2021/07/13 11:11:14;;;;;;;12.98;11.48;;;;;;;29.03;53.83;97904.56;4932509;29;20039;-76
2021/07/13 11:13:44;;;;;;;12.47;11.20;;;;;;;29.08;54.49;97904.06;4931051;29;20016;-74
2021/07/13 11:16:10;;;;;;;15.10;11.15;;;;;;;29.17;54.17;97903.47;4931240;29;20036;-73
2021/07/13 11:18:37;;;;;;;12.40;11.10;;;;;;;29.25;53.83;97907.72;4930782;29;20043;-74
2021/07/13 11:21:30;;;;;;;11.43;10.35;;;;;;;29.29;53.38;97902.81;4930080;29;20063;-77
2021/07/13 11:24:10;;;;;;;12.30;10.85;;;;;;;29.37;53.53;97897.81;4928298;29;20040;-76